Overton RPC :: 100A

liberation: 2020-09-19  07:30     latitude: 36.107992     longitude: -86.925452 39 birds
# LOFT PRING MILES ARRIVAL SPEED ToWin
1 VALHALLA LOFTS IF20-VALH-0018 93.284 2020-09-19 10:09:34.785 1028.831 00:00:00
2 VALHALLA LOFTS IF20-VALH-0096 93.284 2020-09-19 10:09:38.284 1028.455 00:00:04
3 VALHALLA LOFTS IF20-VALH-0001 93.284 2020-09-19 10:09:41.616 1028.098 00:00:07
4 VALHALLA LOFTS IF20-VALH-0017 93.284 2020-09-19 10:09:44.383 1027.801 00:00:10
5 VALHALLA LOFTS IF20-VALH-0087 93.284 2020-09-19 10:09:49.284 1027.276 00:00:14
6 VALHALLA LOFTS IF20-VALH-0085 93.284 2020-09-19 10:09:50.219 1027.175 00:00:15
7 VALHALLA LOFTS IF20-VALH-0088 93.284 2020-09-19 10:09:51.294 1027.060 00:00:17
8 VALHALLA LOFTS IF20-VALH-0100 93.284 2020-09-19 10:09:51.608 1027.027 00:00:17
9 VALHALLA LOFTS IF20-VALH-0094 93.284 2020-09-19 10:09:51.919 1026.993 00:00:17
10 VALHALLA LOFTS IF20-VALH-0009 93.284 2020-09-19 10:09:53.769 1026.795 00:00:19
11 VALHALLA LOFTS IF20-VALH-0042 93.284 2020-09-19 10:09:56.840 1026.467 00:00:22
12 VALHALLA LOFTS IF20-ORP-0021 93.284 2020-09-19 10:10:01.222 1025.998 00:00:26
13 VALHALLA LOFTS IF20-VALH-0025 93.284 2020-09-19 10:10:13.597 1024.678 00:00:39
14 VALHALLA LOFTS IF20-ORP-0020 93.284 2020-09-19 10:10:36.127 1022.282 00:01:01
15 VALHALLA LOFTS IF20-VALH-0020 93.284 2020-09-19 10:10:38.889 1021.989 00:01:04
16 VALHALLA LOFTS IF20-VALH-0045 93.284 2020-09-19 10:10:42.041 1021.655 00:01:07
17 VALHALLA LOFTS IF20-VALH-0095 93.284 2020-09-19 10:11:07.163 1019.000 00:01:32
18 VALHALLA LOFTS IF20-VALH-0097 93.284 2020-09-19 10:11:26.848 1016.929 00:01:52
19 VALHALLA LOFTS IF20-VALH-0032 93.284 2020-09-19 10:12:04.067 1013.037 00:02:29
20 VALHALLA LOFTS IF20-VALH-0023 93.284 2020-09-19 10:12:41.705 1009.131 00:03:07
21 VALHALLA LOFTS IF20-VALH-0022 93.284 2020-09-19 10:12:44.513 1008.841 00:03:10
22 VALHALLA LOFTS IF20-VALH-0098 93.284 2020-09-19 10:15:43.068 990.724 00:06:08
23 VALHALLA LOFTS IF20-ORP-0022 93.284 2020-09-19 10:15:45.306 990.501 00:06:11
24 VALHALLA LOFTS IF20-VALH-0013 93.284 2020-09-19 10:37:22.909 876.182 00:27:48
25 VALHALLA LOFTS IF20-VALH-0003 93.284 2020-09-19 10:38:57.723 868.855 00:29:23
26 VALHALLA LOFTS IF20-VALH-0089 93.284 2020-09-19 10:41:03.196 859.345 00:31:28
27 VALHALLA LOFTS IF20-VALH-0005 93.284 2020-09-19 10:42:14.207 854.054 00:32:39
28 LET IT GO LOFT IF20-ORP-0122 116.698 2020-09-19 11:34:55.825 838.561 00:45:18
29 LET IT GO LOFT IF20-ORP-0112 116.698 2020-09-19 11:35:28.497 836.701 00:45:50
30 LET IT GO LOFT IF20-VALH-0092 116.698 2020-09-19 11:35:47.942 835.598 00:46:10
31 LET IT GO LOFT IF20-ORP-0128 116.698 2020-09-19 11:39:15.731 823.989 00:49:38
32 LET IT GO LOFT IF20-ORP-0129 116.698 2020-09-19 11:41:41.862 816.015 00:52:04
33 LET IT GO LOFT IF20-ORP-0106 116.698 2020-09-19 11:45:06.874 805.086 00:55:29
34 LET IT GO LOFT IF20-ORP-0120 116.698 2020-09-19 12:40:05.365 662.355 01:50:27
35 VALHALLA LOFTS IF20-VALH-0014 93.284 2020-09-19 11:57:46.112 613.144 01:48:11
LET IT GO LOFT IF20-ORP-0126 0 0000-00-00 00:00:00.000 0.000 00:00:00
LET IT GO LOFT IF20-ORP-0131 0 0000-00-00 00:00:00.000 0.000 00:00:00
LET IT GO LOFT IF20-ORP-0134 0 0000-00-00 00:00:00.000 0.000 00:00:00
VALHALLA LOFTS IF20-VALH-0086 0 0000-00-00 00:00:00.000 0.000 00:00:00